Time;durP1;ratioP1;P1;durP2;ratioP2;P2;SDS_P1;SDS_P2;PMS_P1;PMS_P2;Temp;Humidity;BMP_temperature;BMP_pressure;BME280_temperature;BME280_humidity;BME280_pressure;Samples;Min_cycle;Max_cycle;Signal;HPM_P1;HPM_P2
2023/06/11 00:01:19;;;;;;;0.00;0.00;;;;;;;28.86;30.20;101657.41;5043217;28;20036;-76
2023/06/11 00:03:52;;;;;;;0.00;0.00;;;;;;;28.70;30.42;101658.25;5043517;28;20583;-75
2023/06/11 00:06:20;;;;;;;0.00;0.00;;;;;;;28.63;31.19;101662.31;5041057;28;20574;-76
2023/06/11 00:08:49;;;;;;;0.00;0.00;;;;;;;28.67;30.77;101662.47;5042634;28;20083;-77
2023/06/11 00:11:15;;;;;;;0.25;0.00;;;;;;;28.47;31.70;101658.38;5042895;28;20056;-76
2023/06/11 00:13:40;;;;;;;0.00;0.00;;;;;;;28.55;31.29;101654.00;5043921;28;20029;-77
2023/06/11 00:16:06;;;;;;;0.00;0.00;;;;;;;28.37;32.30;101652.34;5024399;28;20054;-75
2023/06/11 00:18:32;;;;;;;0.00;0.00;;;;;;;28.31;31.69;101670.22;5041326;28;20596;-75
2023/06/11 00:20:58;;;;;;;0.00;0.00;;;;;;;28.37;31.98;101664.22;5039958;28;20061;-75
2023/06/11 00:23:24;;;;;;;0.00;0.00;;;;;;;28.52;31.07;101655.44;5044447;28;20045;-75
2023/06/11 00:25:52;;;;;;;0.00;0.00;;;;;;;28.36;32.27;101645.22;5044125;28;20067;-76
2023/06/11 00:28:17;;;;;;;0.00;0.00;;;;;;;28.22;32.11;101663.88;5040616;28;20104;-75
2023/06/11 00:30:43;;;;;;;0.00;0.00;;;;;;;28.35;32.02;101649.91;5044118;28;20489;-76
2023/06/11 00:33:10;;;;;;;0.00;0.00;;;;;;;28.06;33.29;101654.44;5038756;28;20127;-76
2023/06/11 00:35:37;;;;;;;0.00;0.00;;;;;;;28.24;32.48;101640.31;5042009;28;20091;-78
2023/06/11 00:38:02;;;;;;;0.00;0.00;;;;;;;28.22;32.64;101639.84;5042548;28;20031;-76
2023/06/11 00:40:28;;;;;;;0.00;0.00;;;;;;;28.27;32.32;101636.91;5040054;28;20053;-76
2023/06/11 00:42:54;;;;;;;0.00;0.00;;;;;;;28.21;33.01;101635.44;5024984;28;20086;-76
2023/06/11 00:45:22;;;;;;;0.00;0.00;;;;;;;28.15;33.17;101636.72;5040811;28;20056;-75
2023/06/11 00:47:48;;;;;;;0.00;0.00;;;;;;;28.08;33.06;101636.41;5025324;28;20501;-76
2023/06/11 00:50:15;;;;;;;0.00;0.00;;;;;;;28.10;33.68;101631.34;5041571;28;20029;-75
2023/06/11 00:52:41;;;;;;;0.00;0.00;;;;;;;27.96;33.67;101636.22;5041067;28;20024;-76
2023/06/11 00:55:07;;;;;;;0.00;0.00;;;;;;;28.00;33.81;101639.97;5050429;28;20019;-74
2023/06/11 00:57:35;;;;;;;0.00;0.00;;;;;;;27.92;34.24;101635.19;5031372;28;20087;-75
2023/06/11 01:00:01;;;;;;;0.00;0.00;;;;;;;28.02;33.44;101639.63;5046622;28;20474;-75
2023/06/11 01:02:36;;;;;;;0.00;0.00;;;;;;;27.81;34.66;101645.72;5019641;28;20037;-77
2023/06/11 01:05:03;;;;;;;0.00;0.00;;;;;;;27.80;34.00;101643.28;5027932;28;20042;-75
2023/06/11 01:07:34;;;;;;;0.00;0.00;;;;;;;27.83;34.43;101640.69;5031601;28;20124;-76
2023/06/11 01:10:00;;;;;;;0.00;0.00;;;;;;;27.91;33.74;101650.13;5032095;28;20048;-75
2023/06/11 01:12:25;;;;;;;0.00;0.00;;;;;;;27.91;34.22;101650.13;5051386;28;20417;-75
2023/06/11 01:14:51;;;;;;;0.00;0.00;;;;;;;27.71;34.90;101639.69;5051107;28;20033;-76
2023/06/11 01:17:25;;;;;;;0.10;0.10;;;;;;;27.67;35.23;101645.06;5050777;28;20029;-75
2023/06/11 01:20:11;;;;;;;0.00;0.00;;;;;;;27.87;35.02;101654.69;5067281;28;20041;-74
2023/06/11 01:22:56;;;;;;;0.63;0.10;;;;;;;28.10;34.96;101656.22;5059858;28;20071;-75
2023/06/11 01:25:35;;;;;;;0.00;0.00;;;;;;;27.79;35.03;101652.72;5056080;28;20473;-75
2023/06/11 01:28:19;;;;;;;0.00;0.00;;;;;;;27.65;35.05;101655.59;5021016;28;20033;-74
2023/06/11 01:30:49;;;;;;;0.00;0.00;;;;;;;27.53;36.04;101660.09;5064581;28;20041;-74
2023/06/11 01:33:18;;;;;;;0.00;0.00;;;;;;;27.43;36.04;101666.72;5054400;28;20085;-73
2023/06/11 01:35:44;;;;;;;0.00;0.00;;;;;;;27.70;35.92;101660.16;5071140;28;20086;-74
2023/06/11 01:38:09;;;;;;;0.00;0.00;;;;;;;27.50;36.75;101657.97;5036236;28;20029;-74
2023/06/11 01:40:35;;;;;;;0.00;0.00;;;;;;;27.43;36.86;101658.44;5054344;28;20078;-75
2023/06/11 01:43:02;;;;;;;0.00;0.00;;;;;;;27.59;36.13;101659.66;5060656;28;20029;-75
2023/06/11 01:45:32;;;;;;;0.00;0.00;;;;;;;27.66;36.13;101653.63;5054361;28;20044;-74
2023/06/11 01:47:58;;;;;;;0.00;0.00;;;;;;;27.80;36.21;101654.34;5023648;28;20031;-75
2023/06/11 01:50:23;;;;;;;0.00;0.00;;;;;;;27.43;36.44;101652.91;5066827;28;20037;-76
2023/06/11 01:52:48;;;;;;;0.00;0.00;;;;;;;27.64;36.36;101648.44;5064428;28;20029;-75
2023/06/11 01:55:14;;;;;;;0.00;0.00;;;;;;;27.57;36.92;101652.81;5059975;28;20393;-75
2023/06/11 01:57:41;;;;;;;0.00;0.00;;;;;;;27.65;36.75;101646.50;5054083;28;20508;-75
2023/06/11 02:00:10;;;;;;;0.00;0.00;;;;;;;27.51;36.89;101643.03;5055193;28;20051;-75
2023/06/11 02:02:40;;;;;;;0.00;0.00;;;;;;;27.51;37.55;101649.38;5035336;28;20067;-75
2023/06/11 02:05:07;;;;;;;0.00;0.00;;;;;;;27.59;37.37;101656.06;5017831;28;20033;-75
2023/06/11 02:07:32;;;;;;;0.00;0.00;;;;;;;27.49;37.17;101646.13;5070008;28;20480;-75
2023/06/11 02:09:58;;;;;;;0.00;0.00;;;;;;;27.53;37.54;101649.88;5057657;28;20017;-75
2023/06/11 02:12:23;;;;;;;0.00;0.00;;;;;;;27.58;37.95;101652.47;5066705;28;20052;-74
2023/06/11 02:14:49;;;;;;;0.00;0.00;;;;;;;27.75;37.57;101647.00;5053553;28;20040;-75
2023/06/11 02:17:19;;;;;;;0.00;0.00;;;;;;;27.77;37.13;101643.94;5067463;28;20025;-75
2023/06/11 02:19:45;;;;;;;0.00;0.00;;;;;;;27.71;37.70;101642.47;5056749;28;20048;-75
2023/06/11 02:22:10;;;;;;;0.00;0.00;;;;;;;27.73;37.44;101643.75;5049405;28;20448;-76
2023/06/11 02:24:36;;;;;;;0.00;0.00;;;;;;;27.86;37.33;101644.78;5068006;28;20037;-74
2023/06/11 02:27:01;;;;;;;0.00;0.00;;;;;;;27.87;36.86;101638.13;5053298;28;20044;-76
2023/06/11 02:29:26;;;;;;;0.00;0.00;;;;;;;27.84;37.51;101635.97;5069279;28;20036;-76
2023/06/11 02:31:52;;;;;;;0.00;0.00;;;;;;;27.92;36.64;101639.91;5056624;28;20097;-74
2023/06/11 02:34:17;;;;;;;0.00;0.00;;;;;;;27.85;36.93;101643.16;5066911;28;20700;-74
2023/06/11 02:36:42;;;;;;;0.00;0.00;;;;;;;27.54;37.97;101648.72;5062993;28;20041;-74
2023/06/11 02:39:08;;;;;;;0.00;0.00;;;;;;;27.19;38.81;101641.38;5059332;28;20584;-76
2023/06/11 02:41:33;;;;;;;0.00;0.00;;;;;;;27.60;38.02;101641.09;5067782;28;20033;-75
2023/06/11 02:43:59;;;;;;;0.00;0.00;;;;;;;27.64;38.13;101636.56;5056741;28;20060;-75
2023/06/11 02:46:24;;;;;;;0.00;0.00;;;;;;;27.35;38.47;101634.38;5048246;28;20465;-82
2023/06/11 02:48:50;;;;;;;0.00;0.00;;;;;;;27.02;39.53;101634.97;5053019;28;20036;-77
2023/06/11 02:51:15;;;;;;;0.00;0.00;;;;;;;27.29;38.97;101634.78;5054046;28;20128;-77
2023/06/11 02:53:42;;;;;;;0.00;0.00;;;;;;;26.95;39.90;101638.97;5036034;28;20037;-77
2023/06/11 02:56:07;;;;;;;0.00;0.00;;;;;;;27.04;39.74;101640.97;5071506;28;20120;-77
2023/06/11 02:58:33;;;;;;;0.05;0.05;;;;;;;27.13;39.40;101634.38;5064292;28;20108;-74
2023/06/11 03:00:58;;;;;;;0.00;0.00;;;;;;;27.03;39.76;101636.59;5034835;28;20075;-76
2023/06/11 03:03:24;;;;;;;0.03;0.00;;;;;;;26.95;40.33;101640.91;5052987;28;20040;-76
2023/06/11 03:05:49;;;;;;;0.00;0.00;;;;;;;27.01;40.09;101642.41;5068958;28;20032;-75
2023/06/11 03:08:14;;;;;;;0.00;0.00;;;;;;;27.08;39.72;101641.97;5058594;28;20024;-76
2023/06/11 03:10:40;;;;;;;0.00;0.00;;;;;;;27.15;39.62;101645.09;5045136;28;20036;-76
2023/06/11 03:13:05;;;;;;;0.00;0.00;;;;;;;27.11;39.63;101638.56;5052762;28;20445;-76
2023/06/11 03:15:31;;;;;;;0.00;0.00;;;;;;;27.42;38.67;101634.69;5052172;28;20125;-77
2023/06/11 03:17:57;;;;;;;0.00;0.00;;;;;;;26.92;40.09;101636.88;5055135;28;20040;-77
2023/06/11 03:20:22;;;;;;;0.00;0.00;;;;;;;26.81;40.52;101638.25;5065655;28;20040;-79
2023/06/11 03:22:47;;;;;;;0.00;0.00;;;;;;;26.69;40.88;101643.47;5063042;28;20089;-76
2023/06/11 03:25:13;;;;;;;0.00;0.00;;;;;;;26.98;40.05;101651.34;5040971;28;20021;-78
2023/06/11 03:27:39;;;;;;;0.00;0.00;;;;;;;26.99;40.36;101652.16;5052402;28;20063;-79
2023/06/11 03:30:06;;;;;;;0.00;0.00;;;;;;;26.96;40.05;101639.81;5057114;28;20029;-77
2023/06/11 03:32:31;;;;;;;0.00;0.00;;;;;;;26.69;40.78;101648.19;5064073;28;20033;-77
2023/06/11 03:34:57;;;;;;;0.00;0.00;;;;;;;27.15;39.95;101648.69;5033335;28;20102;-76
2023/06/11 03:37:22;;;;;;;0.00;0.00;;;;;;;27.18;39.84;101647.25;5052709;28;20381;-77
2023/06/11 03:39:47;;;;;;;0.00;0.00;;;;;;;27.06;40.33;101647.00;5062471;28;20091;-77
2023/06/11 03:42:13;;;;;;;0.00;0.00;;;;;;;26.97;40.15;101652.47;5072129;28;20045;-76
2023/06/11 03:44:38;;;;;;;0.00;0.00;;;;;;;27.21;39.70;101652.09;5044167;28;20082;-75
2023/06/11 03:47:04;;;;;;;0.00;0.00;;;;;;;27.25;39.79;101653.94;5051935;28;20443;-80
2023/06/11 03:49:29;;;;;;;0.00;0.00;;;;;;;27.07;39.99;101654.97;5051839;28;20025;-75
2023/06/11 03:51:55;;;;;;;0.00;0.00;;;;;;;27.12;39.92;101652.09;5033324;28;20033;-77
2023/06/11 03:54:21;;;;;;;0.00;0.00;;;;;;;27.29;40.16;101654.09;5051414;28;20044;-76
2023/06/11 03:56:47;;;;;;;0.00;0.00;;;;;;;27.08;40.30;101662.13;5070540;28;20036;-76
2023/06/11 03:59:12;;;;;;;0.00;0.00;;;;;;;27.14;40.35;101660.84;5057955;28;20024;-77
2023/06/11 04:01:38;;;;;;;0.10;0.10;;;;;;;26.97;40.57;101660.72;5056965;28;20461;-77
2023/06/11 04:04:03;;;;;;;0.10;0.10;;;;;;;27.05;40.29;101659.16;5055945;28;20082;-75
2023/06/11 04:06:29;;;;;;;0.00;0.00;;;;;;;26.99;40.93;101664.00;5063619;28;20025;-78
2023/06/11 04:08:55;;;;;;;0.00;0.00;;;;;;;27.03;41.15;101664.19;5060286;28;20036;-78
2023/06/11 04:11:20;;;;;;;0.03;0.03;;;;;;;27.11;40.38;101663.41;5050436;28;20033;-76
2023/06/11 04:13:50;;;;;;;0.00;0.00;;;;;;;27.16;40.48;101666.06;5058863;28;20037;-76
2023/06/11 04:16:18;;;;;;;0.00;0.00;;;;;;;27.30;40.55;101666.78;5062279;28;20029;-75
2023/06/11 04:18:43;;;;;;;0.10;0.10;;;;;;;27.17;40.32;101660.22;5060438;28;20478;-75
2023/06/11 04:21:09;;;;;;;0.00;0.00;;;;;;;27.10;40.52;101659.03;5064814;28;20121;-75
2023/06/11 04:23:35;;;;;;;0.03;0.00;;;;;;;26.93;41.13;101663.31;5054875;28;20615;-77
2023/06/11 04:26:01;;;;;;;0.00;0.00;;;;;;;27.07;40.76;101668.75;5067406;28;20032;-77
2023/06/11 04:28:27;;;;;;;0.00;0.00;;;;;;;26.84;41.52;101667.16;5033777;28;20031;-76
2023/06/11 04:30:57;;;;;;;0.00;0.00;;;;;;;27.17;40.86;101675.94;5062512;28;20104;-77
2023/06/11 04:33:32;;;;;;;;;;;;;;;27.04;41.07;101671.34;5056141;28;20033;-76
2023/06/11 04:36:04;;;;;;;0.00;0.00;;;;;;;27.14;40.53;101662.78;5054668;28;20419;-77
2023/06/11 04:38:31;;;;;;;0.00;0.00;;;;;;;27.10;41.00;101665.38;5071437;28;20507;-77
2023/06/11 04:40:58;;;;;;;0.00;0.00;;;;;;;26.83;41.16;101669.09;5059444;28;20037;-79
2023/06/11 04:43:24;;;;;;;0.08;0.08;;;;;;;26.40;42.41;101669.81;5052023;28;20039;-77
2023/06/11 04:45:55;;;;;;;0.00;0.00;;;;;;;27.14;40.93;101671.06;5067411;28;20081;-75
2023/06/11 04:48:24;;;;;;;0.00;0.00;;;;;;;27.00;40.70;101668.41;5056713;28;20036;-77
2023/06/11 04:50:51;;;;;;;0.00;0.00;;;;;;;27.00;41.50;101664.81;5062332;28;20036;-77
2023/06/11 04:53:24;;;;;;;0.00;0.00;;;;;;;26.91;41.73;101673.03;5056766;28;20401;-76
2023/06/11 04:55:57;;;;;;;0.00;0.00;;;;;;;26.83;42.25;101671.84;5069693;28;20051;-76
2023/06/11 04:58:26;;;;;;;0.00;0.00;;;;;;;27.20;41.08;101670.63;5064479;28;20126;-77
2023/06/11 05:00:56;;;;;;;0.00;0.00;;;;;;;26.63;42.24;101671.50;5062185;28;20143;-77
2023/06/11 05:03:21;;;;;;;0.00;0.00;;;;;;;27.07;41.77;101671.50;5071084;28;20032;-75
2023/06/11 05:05:51;;;;;;;0.00;0.00;;;;;;;27.14;41.50;101679.34;5073099;28;20519;-76
2023/06/11 05:08:28;;;;;;;0.00;0.00;;;;;;;27.15;41.38;101679.03;5061486;28;20048;-78
2023/06/11 05:10:59;;;;;;;0.10;0.10;;;;;;;27.64;40.30;101684.34;5064041;28;20110;-77
2023/06/11 05:13:25;;;;;;;0.00;0.00;;;;;;;27.35;41.40;101678.53;5055755;28;20025;-77
2023/06/11 05:15:54;;;;;;;0.00;0.00;;;;;;;27.37;40.66;101676.28;5073305;28;20110;-76
2023/06/11 05:18:20;;;;;;;0.00;0.00;;;;;;;27.40;40.84;101681.16;5075351;28;20033;-78
2023/06/11 05:20:47;;;;;;;0.00;0.00;;;;;;;27.38;41.22;101686.16;5064598;28;20126;-80
2023/06/11 05:23:14;;;;;;;0.10;0.10;;;;;;;27.40;41.50;101681.16;5068838;28;20040;-76
2023/06/11 05:25:46;;;;;;;0.00;0.00;;;;;;;27.55;40.77;101685.44;5058399;28;20532;-76
2023/06/11 05:28:15;;;;;;;0.10;0.10;;;;;;;27.67;41.14;101693.94;5069106;28;20095;-76
2023/06/11 05:30:43;;;;;;;0.00;0.00;;;;;;;27.92;40.53;101689.63;5074011;28;20059;-77
2023/06/11 05:33:09;;;;;;;0.00;0.00;;;;;;;27.80;40.76;101684.72;5070685;28;20521;-77
2023/06/11 05:35:34;;;;;;;0.00;0.00;;;;;;;28.05;40.27;101689.53;5057989;28;20045;-75
2023/06/11 05:38:03;;;;;;;0.00;0.00;;;;;;;28.05;39.78;101695.06;5074997;28;20508;-79
2023/06/11 05:40:30;;;;;;;0.00;0.00;;;;;;;27.97;39.39;101690.31;5067438;28;20040;-76
2023/06/11 05:42:55;;;;;;;0.00;0.00;;;;;;;28.06;39.19;101693.13;5055323;28;20028;-78
2023/06/11 05:45:21;;;;;;;0.00;0.00;;;;;;;27.92;40.03;101692.41;5061810;28;20311;-76
2023/06/11 05:47:46;;;;;;;0.00;0.00;;;;;;;28.41;38.77;101689.28;5072672;28;20052;-76
2023/06/11 05:50:12;;;;;;;0.00;0.00;;;;;;;28.29;38.91;101683.56;5058776;28;20028;-79
2023/06/11 05:52:37;;;;;;;0.00;0.00;;;;;;;28.04;39.44;101689.88;5064687;28;20091;-78
2023/06/11 05:55:03;;;;;;;0.00;0.00;;;;;;;28.09;39.80;101692.50;5067354;28;20487;-77
2023/06/11 05:57:29;;;;;;;0.10;0.00;;;;;;;28.24;39.25;101687.31;5074497;28;20101;-77
2023/06/11 05:59:54;;;;;;;0.00;0.00;;;;;;;28.60;38.26;101685.09;5068741;28;20025;-77
2023/06/11 06:02:21;;;;;;;0.00;0.00;;;;;;;28.15;39.78;101688.41;5061950;28;20037;-79
2023/06/11 06:04:48;;;;;;;0.00;0.00;;;;;;;28.14;39.50;101690.38;5063358;28;20033;-77
2023/06/11 06:07:14;;;;;;;0.00;0.00;;;;;;;28.46;38.83;101689.13;5054564;28;20030;-77
2023/06/11 06:09:40;;;;;;;0.00;0.00;;;;;;;28.63;38.18;101698.28;5054356;28;20092;-78
2023/06/11 06:12:06;;;;;;;0.00;0.00;;;;;;;28.97;37.50;101691.09;5074631;28;20408;-78
2023/06/11 06:14:32;;;;;;;0.10;0.10;;;;;;;28.84;38.00;101701.19;5073731;28;20129;-77
2023/06/11 06:16:58;;;;;;;0.00;0.00;;;;;;;28.31;39.82;101704.22;5061439;28;20136;-78
2023/06/11 06:19:23;;;;;;;0.00;0.00;;;;;;;28.63;38.50;101703.00;5069426;28;20024;-77
2023/06/11 06:21:48;;;;;;;0.00;0.00;;;;;;;28.58;39.11;101698.44;5054355;28;20443;-77
2023/06/11 06:24:14;;;;;;;0.00;0.00;;;;;;;28.80;38.43;101705.75;5035344;28;20037;-78
2023/06/11 06:26:40;;;;;;;0.00;0.00;;;;;;;29.26;37.71;101710.59;5053523;28;20040;-78
2023/06/11 06:29:12;;;;;;;0.00;0.00;;;;;;;29.63;36.91;101707.06;5053589;28;20116;-77
2023/06/11 06:31:38;;;;;;;0.00;0.00;;;;;;;28.96;38.52;101706.88;5057939;28;20025;-79
2023/06/11 06:34:04;;;;;;;0.00;0.00;;;;;;;29.01;38.98;101709.47;5053853;28;20041;-78
2023/06/11 06:36:30;;;;;;;0.00;0.00;;;;;;;29.54;37.64;101705.47;5061875;28;20438;-78
2023/06/11 06:38:56;;;;;;;0.00;0.00;;;;;;;29.72;36.99;101707.06;5062212;28;20042;-77
2023/06/11 06:41:21;;;;;;;0.00;0.00;;;;;;;29.77;37.40;101704.91;5053825;28;20037;-77
2023/06/11 06:43:46;;;;;;;0.00;0.00;;;;;;;30.18;35.96;101709.75;5053327;28;20353;-77
2023/06/11 06:46:12;;;;;;;0.00;0.00;;;;;;;29.94;36.29;101702.03;5058839;28;20028;-77
2023/06/11 06:48:38;;;;;;;0.00;0.00;;;;;;;29.86;37.09;101700.13;5072214;28;20533;-77
2023/06/11 06:51:03;;;;;;;0.00;0.00;;;;;;;30.10;36.54;101699.50;5060137;28;20397;-76
2023/06/11 06:53:29;;;;;;;0.03;0.00;;;;;;;30.10;36.24;101700.31;5035573;28;20580;-77
2023/06/11 06:55:55;;;;;;;0.00;0.00;;;;;;;30.07;36.34;101703.75;5050059;28;20047;-76
2023/06/11 06:58:20;;;;;;;0.00;0.00;;;;;;;30.61;35.06;101698.34;5047513;28;20025;-76
2023/06/11 07:00:45;;;;;;;0.00;0.00;;;;;;;30.45;35.59;101697.38;5045777;28;20052;-77
2023/06/11 07:03:14;;;;;;;0.00;0.00;;;;;;;30.62;35.12;101705.53;5050449;28;20036;-81
2023/06/11 07:05:41;;;;;;;0.00;0.00;;;;;;;30.78;34.44;101707.34;5051622;28;20608;-80
2023/06/11 07:08:08;;;;;;;0.00;0.00;;;;;;;31.01;33.78;101713.38;5047838;28;20544;-78
2023/06/11 07:10:34;;;;;;;0.00;0.00;;;;;;;31.01;34.50;101708.66;5052681;28;20044;-78
2023/06/11 07:12:59;;;;;;;0.00;0.00;;;;;;;31.04;34.31;101709.91;5039287;28;20040;-81
2023/06/11 07:15:25;;;;;;;0.00;0.00;;;;;;;30.81;34.73;101709.44;5047307;28;20102;-80
2023/06/11 07:17:50;;;;;;;0.00;0.00;;;;;;;30.51;35.40;101712.63;5063342;28;20040;-77
2023/06/11 07:20:15;;;;;;;0.00;0.00;;;;;;;30.96;34.34;101716.34;5061166;28;20033;-77
2023/06/11 07:22:41;;;;;;;0.00;0.00;;;;;;;31.13;33.96;101713.44;5058136;28;20021;-76
2023/06/11 07:25:07;;;;;;;0.00;0.00;;;;;;;30.74;34.83;101723.06;5061148;28;20016;-78
2023/06/11 07:27:33;;;;;;;0.00;0.00;;;;;;;31.05;34.90;101717.09;5060387;28;20040;-71
2023/06/11 07:29:58;;;;;;;0.00;0.00;;;;;;;31.16;34.91;101724.66;5055493;28;20047;-72
2023/06/11 07:32:23;;;;;;;0.00;0.00;;;;;;;31.79;33.11;101725.25;5052638;28;20558;-73
2023/06/11 07:34:49;;;;;;;0.00;0.00;;;;;;;31.96;33.43;101727.88;5062591;28;20049;-69
2023/06/11 07:37:14;;;;;;;0.00;0.00;;;;;;;31.69;33.28;101723.75;5064078;28;20024;-69
2023/06/11 07:39:40;;;;;;;0.00;0.00;;;;;;;31.88;33.53;101720.41;5058896;28;20052;-72
2023/06/11 07:42:06;;;;;;;0.00;0.00;;;;;;;31.86;33.57;101723.53;5064771;28;20032;-71
2023/06/11 07:44:32;;;;;;;0.00;0.00;;;;;;;32.07;33.25;101730.97;5038159;28;20064;-70
2023/06/11 07:46:57;;;;;;;0.00;0.00;;;;;;;32.31;33.05;101719.81;5061364;28;20024;-72
2023/06/11 07:49:23;;;;;;;0.00;0.00;;;;;;;32.29;32.81;101722.97;5061279;28;20013;-68
2023/06/11 07:51:48;;;;;;;0.00;0.00;;;;;;;31.85;33.56;101718.31;5059245;28;20036;-69
2023/06/11 07:54:13;;;;;;;0.00;0.00;;;;;;;32.17;32.66;101728.53;5065443;28;20043;-69
2023/06/11 07:56:39;;;;;;;0.00;0.00;;;;;;;32.00;33.04;101725.97;5053132;28;20496;-70
2023/06/11 07:59:04;;;;;;;0.00;0.00;;;;;;;32.64;32.01;101715.72;5050566;28;20040;-72
2023/06/11 08:01:30;;;;;;;0.00;0.00;;;;;;;31.97;33.70;101723.91;5052664;28;20024;-70
2023/06/11 08:03:56;;;;;;;0.00;0.00;;;;;;;32.80;32.36;101718.56;5060977;28;20075;-69
2023/06/11 08:06:22;;;;;;;0.00;0.00;;;;;;;32.65;32.61;101724.84;5057878;28;20033;-70
2023/06/11 08:08:47;;;;;;;0.00;0.00;;;;;;;33.15;31.78;101719.59;5059078;28;20527;-71
2023/06/11 08:11:13;;;;;;;0.00;0.00;;;;;;;33.12;31.32;101723.06;5059183;28;20029;-69
2023/06/11 08:13:40;;;;;;;0.00;0.00;;;;;;;32.95;30.79;101720.59;5060472;28;20051;-71
2023/06/11 08:16:07;;;;;;;0.00;0.00;;;;;;;33.20;31.08;101722.09;5061143;28;20028;-69
2023/06/11 08:18:32;;;;;;;0.00;0.00;;;;;;;33.18;30.94;101720.88;5058714;28;20441;-68
2023/06/11 08:20:58;;;;;;;0.00;0.00;;;;;;;33.26;30.59;101725.47;5060140;28;20047;-69
2023/06/11 08:23:24;;;;;;;0.00;0.00;;;;;;;33.58;30.16;101730.75;5060346;28;20033;-70
2023/06/11 08:25:49;;;;;;;0.00;0.00;;;;;;;33.79;29.82;101724.09;5052833;28;20048;-69
2023/06/11 08:28:15;;;;;;;0.00;0.00;;;;;;;33.23;30.30;101718.63;5054164;28;20051;-70
2023/06/11 08:30:41;;;;;;;0.00;0.00;;;;;;;33.28;30.07;101715.56;5050103;28;20041;-70
2023/06/11 08:33:06;;;;;;;0.00;0.00;;;;;;;33.47;29.74;101721.31;5049719;28;20029;-70
2023/06/11 08:35:31;;;;;;;0.00;0.00;;;;;;;33.65;30.51;101716.97;5048833;28;20041;-72
2023/06/11 08:37:57;;;;;;;0.00;0.00;;;;;;;34.05;29.25;101719.56;5049193;28;20396;-72
2023/06/11 08:40:23;;;;;;;0.00;0.00;;;;;;;33.91;29.22;101713.63;5049652;28;20024;-70
2023/06/11 08:42:49;;;;;;;0.00;0.00;;;;;;;34.14;28.90;101716.59;5049600;28;20580;-71
2023/06/11 08:45:14;;;;;;;0.00;0.00;;;;;;;33.94;29.71;101715.69;5050315;28;20037;-72
2023/06/11 08:47:47;;;;;;;0.00;0.00;;;;;;;34.32;29.24;101715.81;5050133;28;20037;-70
2023/06/11 08:50:13;;;;;;;0.00;0.00;;;;;;;34.19;28.83;101708.75;5049973;28;20068;-69
2023/06/11 08:52:40;;;;;;;0.00;0.00;;;;;;;34.33;28.95;101711.06;5050055;28;20497;-70
2023/06/11 08:55:06;;;;;;;0.00;0.00;;;;;;;34.62;29.01;101716.09;5050159;28;20029;-70
2023/06/11 08:57:32;;;;;;;0.00;0.00;;;;;;;34.69;28.69;101709.88;5049562;28;20500;-70
2023/06/11 08:59:57;;;;;;;0.00;0.00;;;;;;;34.49;28.53;101712.66;5049267;28;20041;-71
2023/06/11 09:02:23;;;;;;;0.00;0.00;;;;;;;34.71;27.94;101710.31;5049758;28;20037;-71
2023/06/11 09:04:50;;;;;;;0.00;0.00;;;;;;;34.55;28.03;101699.22;5049744;28;20029;-69
2023/06/11 09:07:24;;;;;;;0.00;0.00;;;;;;;34.66;27.75;101713.38;5050664;28;20032;-72
2023/06/11 09:10:07;;;;;;;0.00;0.00;;;;;;;35.15;27.65;101704.03;5065163;28;20025;-69
2023/06/11 09:12:32;;;;;;;0.00;0.00;;;;;;;35.33;27.89;101695.97;5050132;28;20036;-70
2023/06/11 09:14:58;;;;;;;0.00;0.00;;;;;;;34.76;27.95;101710.00;5050097;28;20040;-70
2023/06/11 09:17:26;;;;;;;0.00;0.00;;;;;;;35.28;27.01;101708.28;5049765;28;20041;-69
2023/06/11 09:19:53;;;;;;;0.00;0.00;;;;;;;35.37;27.51;101710.84;5049637;28;20045;-71
2023/06/11 09:22:25;;;;;;;0.00;0.00;;;;;;;34.93;28.28;101699.19;5050141;28;20028;-71
2023/06/11 09:24:51;;;;;;;0.00;0.00;;;;;;;35.71;26.73;101701.47;5049925;28;20049;-71
2023/06/11 09:27:20;;;;;;;0.00;0.00;;;;;;;35.69;27.22;101698.25;5049531;28;20041;-70
2023/06/11 09:29:45;;;;;;;0.00;0.00;;;;;;;36.03;26.45;101705.59;5050726;28;20493;-71
2023/06/11 09:32:11;;;;;;;0.00;0.00;;;;;;;35.92;26.73;101695.44;5049644;28;20041;-71
2023/06/11 09:34:36;;;;;;;0.00;0.00;;;;;;;36.22;25.53;101701.91;5049642;28;20083;-70
2023/06/11 09:37:02;;;;;;;0.00;0.00;;;;;;;35.99;26.74;101709.56;5049849;28;20469;-70
2023/06/11 09:39:28;;;;;;;0.00;0.00;;;;;;;36.02;26.93;101700.38;5049445;28;20041;-70
2023/06/11 09:41:53;;;;;;;0.00;0.00;;;;;;;35.97;26.68;101695.91;5049470;28;20037;-71
2023/06/11 09:44:19;;;;;;;0.00;0.00;;;;;;;36.47;25.32;101697.47;5049734;28;20056;-70
2023/06/11 09:46:49;;;;;;;0.00;0.00;;;;;;;36.53;25.18;101695.13;5049749;28;20021;-72
2023/06/11 09:49:15;;;;;;;0.00;0.00;;;;;;;35.93;25.44;101697.06;5065620;28;20104;-72
2023/06/11 09:51:42;;;;;;;0.00;0.00;;;;;;;36.79;25.06;101697.88;5068165;28;20520;-71
2023/06/11 09:54:08;;;;;;;0.00;0.00;;;;;;;37.10;24.95;101697.44;5053016;28;20041;-70
2023/06/11 09:56:38;;;;;;;0.00;0.00;;;;;;;36.75;24.79;101711.03;5052941;28;20052;-70
2023/06/11 09:59:04;;;;;;;0.00;0.00;;;;;;;36.88;24.30;101702.00;5033011;28;20482;-71
2023/06/11 10:01:31;;;;;;;0.00;0.00;;;;;;;36.81;24.15;101699.09;5033070;28;20513;-71
2023/06/11 10:03:58;;;;;;;0.00;0.00;;;;;;;37.05;24.81;101695.00;5033537;28;20013;-71
2023/06/11 10:06:29;;;;;;;0.00;0.00;;;;;;;37.03;24.24;101688.16;5032387;28;20074;-73
2023/06/11 10:08:59;;;;;;;0.00;0.00;;;;;;;37.23;23.74;101689.56;5047601;28;20106;-69
2023/06/11 10:11:27;;;;;;;0.00;0.00;;;;;;;36.58;25.25;101694.81;5060374;28;20369;-70
2023/06/11 10:14:01;;;;;;;0.00;0.00;;;;;;;37.31;25.00;101691.25;5061489;28;20067;-71
2023/06/11 10:16:27;;;;;;;0.00;0.00;;;;;;;37.10;24.38;101700.25;5053715;28;20091;-70
2023/06/11 10:19:06;;;;;;;0.00;0.00;;;;;;;37.42;23.76;101684.56;5061579;28;20028;-72
2023/06/11 10:21:50;;;;;;;0.00;0.00;;;;;;;38.34;23.17;101688.06;5052745;28;20045;-73
2023/06/11 10:24:26;;;;;;;0.00;0.00;;;;;;;37.82;23.64;101686.50;5063178;28;20071;-73
2023/06/11 10:27:05;;;;;;;0.00;0.00;;;;;;;37.47;23.54;101689.00;5061611;28;20505;-71
2023/06/11 10:29:39;;;;;;;0.00;0.00;;;;;;;37.59;23.22;101694.31;5050494;28;20124;-72
2023/06/11 10:32:21;;;;;;;0.00;0.00;;;;;;;38.30;22.34;101690.06;5052548;28;20029;-71
2023/06/11 10:34:55;;;;;;;0.00;0.00;;;;;;;37.87;22.81;101677.75;5052543;28;20694;-74
2023/06/11 10:37:30;;;;;;;0.00;0.00;;;;;;;38.67;21.72;101688.66;5058037;28;20021;-72
2023/06/11 10:39:56;;;;;;;0.00;0.00;;;;;;;38.31;21.88;101680.44;5042420;28;20041;-71
2023/06/11 10:42:23;;;;;;;0.00;0.00;;;;;;;37.74;22.12;101682.03;5041052;28;20068;-72
2023/06/11 10:44:49;;;;;;;0.00;0.00;;;;;;;38.61;21.42;101686.59;5042318;28;20060;-73
2023/06/11 10:47:14;;;;;;;0.00;0.00;;;;;;;38.65;20.94;101688.25;5051755;28;20385;-70
2023/06/11 10:49:40;;;;;;;0.00;0.00;;;;;;;39.35;20.41;101673.56;5033979;28;20029;-71
2023/06/11 10:52:05;;;;;;;0.00;0.00;;;;;;;39.10;20.11;101685.97;5052609;28;20037;-72
2023/06/11 10:54:35;;;;;;;0.00;0.00;;;;;;;39.58;20.15;101678.00;5059254;28;20500;-74
2023/06/11 10:57:02;;;;;;;0.00;0.00;;;;;;;39.86;19.62;101686.44;5057838;28;20025;-72
2023/06/11 10:59:30;;;;;;;0.00;0.00;;;;;;;39.34;20.82;101679.59;5061804;28;20060;-72
2023/06/11 11:01:56;;;;;;;0.00;0.00;;;;;;;39.15;20.09;101680.78;5056905;28;20033;-73
2023/06/11 11:04:22;;;;;;;0.00;0.00;;;;;;;38.37;20.55;101678.88;5061437;28;20472;-72
2023/06/11 11:06:48;;;;;;;0.00;0.00;;;;;;;39.39;19.91;101676.41;5064470;28;20068;-72
2023/06/11 11:09:21;;;;;;;0.00;0.00;;;;;;;40.03;19.34;101685.63;5066791;28;20083;-72
2023/06/11 11:11:47;;;;;;;0.00;0.00;;;;;;;39.80;18.67;101677.59;5053931;28;20079;-74
2023/06/11 11:14:14;;;;;;;0.00;0.00;;;;;;;39.91;19.00;101678.38;5057766;28;20787;-71
2023/06/11 11:16:39;;;;;;;0.00;0.00;;;;;;;40.12;18.71;101672.72;5052185;28;20529;-72
2023/06/11 11:19:05;;;;;;;0.00;0.00;;;;;;;40.31;18.39;101677.91;5051793;28;20029;-74
2023/06/11 11:21:30;;;;;;;0.00;0.00;;;;;;;40.28;18.14;101663.81;5050994;28;20037;-70
2023/06/11 11:23:56;;;;;;;0.00;0.00;;;;;;;40.43;17.82;101670.25;5052302;28;20040;-72